sensor_id;sensor_type;location;lat;lon;timestamp;temperature;humidity
74923;HTU21D;64715;44.760;37.678;2023-01-16T00:00:34;1.52;79.07
74923;HTU21D;64715;44.760;37.678;2023-01-16T00:01:35;1.49;78.85
74923;HTU21D;64715;44.760;37.678;2023-01-16T00:02:36;1.51;78.84
74923;HTU21D;64715;44.760;37.678;2023-01-16T00:03:37;1.48;78.87
74923;HTU21D;64715;44.760;37.678;2023-01-16T00:04:38;1.47;78.69
74923;HTU21D;64715;44.760;37.678;2023-01-16T00:05:39;1.43;78.97
74923;HTU21D;64715;44.760;37.678;2023-01-16T00:06:40;1.42;78.92
74923;HTU21D;64715;44.760;37.678;2023-01-16T00:07:41;1.41;78.95
74923;HTU21D;64715;44.760;37.678;2023-01-16T00:08:42;1.42;78.92
74923;HTU21D;64715;44.760;37.678;2023-01-16T00:09:44;1.40;78.77
74923;HTU21D;64715;44.760;37.678;2023-01-16T00:10:45;1.38;79.40
74923;HTU21D;64715;44.760;37.678;2023-01-16T00:11:46;1.40;79.17
74923;HTU21D;64715;44.760;37.678;2023-01-16T00:12:47;1.41;79.40
74923;HTU21D;64715;44.760;37.678;2023-01-16T00:13:49;1.41;79.37
74923;HTU21D;64715;44.760;37.678;2023-01-16T00:14:50;1.45;79.31
74923;HTU21D;64715;44.760;37.678;2023-01-16T00:15:51;1.46;79.59
74923;HTU21D;64715;44.760;37.678;2023-01-16T00:16:52;1.47;79.53
74923;HTU21D;64715;44.760;37.678;2023-01-16T00:17:53;1.48;79.61
74923;HTU21D;64715;44.760;37.678;2023-01-16T00:18:55;1.46;79.63
74923;HTU21D;64715;44.760;37.678;2023-01-16T00:19:56;1.47;79.66
74923;HTU21D;64715;44.760;37.678;2023-01-16T00:20:57;1.49;79.30
74923;HTU21D;64715;44.760;37.678;2023-01-16T00:21:58;1.49;79.69
74923;HTU21D;64715;44.760;37.678;2023-01-16T00:22:59;1.49;79.74
74923;HTU21D;64715;44.760;37.678;2023-01-16T00:24:00;1.50;79.92
74923;HTU21D;64715;44.760;37.678;2023-01-16T00:25:02;1.52;79.92
74923;HTU21D;64715;44.760;37.678;2023-01-16T00:26:06;1.53;79.87
74923;HTU21D;64715;44.760;37.678;2023-01-16T00:27:07;1.55;80.09
74923;HTU21D;64715;44.760;37.678;2023-01-16T00:28:11;1.56;79.59
74923;HTU21D;64715;44.760;37.678;2023-01-16T00:29:12;1.61;79.95
74923;HTU21D;64715;44.760;37.678;2023-01-16T00:30:13;1.63;80.30
74923;HTU21D;64715;44.760;37.678;2023-01-16T00:31:15;1.67;80.03
74923;HTU21D;64715;44.760;37.678;2023-01-16T00:32:16;1.69;79.93
74923;HTU21D;64715;44.760;37.678;2023-01-16T00:33:17;1.71;80.00
74923;HTU21D;64715;44.760;37.678;2023-01-16T00:34:19;1.75;80.21
74923;HTU21D;64715;44.760;37.678;2023-01-16T00:35:20;1.78;80.07
74923;HTU21D;64715;44.760;37.678;2023-01-16T00:36:21;1.79;79.98
74923;HTU21D;64715;44.760;37.678;2023-01-16T00:37:22;1.82;80.19
74923;HTU21D;64715;44.760;37.678;2023-01-16T00:38:23;1.84;79.88
74923;HTU21D;64715;44.760;37.678;2023-01-16T00:39:24;1.85;80.24
74923;HTU21D;64715;44.760;37.678;2023-01-16T00:40:25;1.86;80.05
74923;HTU21D;64715;44.760;37.678;2023-01-16T00:41:26;1.85;79.95
74923;HTU21D;64715;44.760;37.678;2023-01-16T00:42:27;1.87;79.85
74923;HTU21D;64715;44.760;37.678;2023-01-16T00:43:28;1.90;79.97
74923;HTU21D;64715;44.760;37.678;2023-01-16T00:44:30;1.88;79.58
74923;HTU21D;64715;44.760;37.678;2023-01-16T00:45:31;1.88;79.77
74923;HTU21D;64715;44.760;37.678;2023-01-16T00:46:32;1.91;79.66
74923;HTU21D;64715;44.760;37.678;2023-01-16T00:47:33;1.91;79.52
74923;HTU21D;64715;44.760;37.678;2023-01-16T00:48:34;1.90;79.67
74923;HTU21D;64715;44.760;37.678;2023-01-16T00:49:36;1.88;79.53
74923;HTU21D;64715;44.760;37.678;2023-01-16T00:50:38;1.91;79.72
74923;HTU21D;64715;44.760;37.678;2023-01-16T00:51:39;1.92;79.50
74923;HTU21D;64715;44.760;37.678;2023-01-16T00:52:40;1.92;79.41
74923;HTU21D;64715;44.760;37.678;2023-01-16T00:53:41;1.93;79.47
74923;HTU21D;64715;44.760;37.678;2023-01-16T00:54:42;1.94;79.23
74923;HTU21D;64715;44.760;37.678;2023-01-16T00:55:43;1.93;79.40
74923;HTU21D;64715;44.760;37.678;2023-01-16T00:56:44;1.93;79.35
74923;HTU21D;64715;44.760;37.678;2023-01-16T00:57:45;1.91;79.15
74923;HTU21D;64715;44.760;37.678;2023-01-16T00:58:46;1.92;79.24
74923;HTU21D;64715;44.760;37.678;2023-01-16T00:59:47;1.90;79.08
74923;HTU21D;64715;44.760;37.678;2023-01-16T01:00:48;1.93;79.37
74923;HTU21D;64715;44.760;37.678;2023-01-16T01:01:50;1.90;79.01
74923;HTU21D;64715;44.760;37.678;2023-01-16T01:02:51;1.91;79.11
74923;HTU21D;64715;44.760;37.678;2023-01-16T01:03:52;1.90;78.98
74923;HTU21D;64715;44.760;37.678;2023-01-16T01:04:53;1.90;79.29
74923;HTU21D;64715;44.760;37.678;2023-01-16T01:05:54;1.88;79.11
74923;HTU21D;64715;44.760;37.678;2023-01-16T01:06:54;1.88;78.92
74923;HTU21D;64715;44.760;37.678;2023-01-16T01:07:55;1.90;78.98
74923;HTU21D;64715;44.760;37.678;2023-01-16T01:08:57;1.86;79.09
74923;HTU21D;64715;44.760;37.678;2023-01-16T01:09:58;1.87;78.98
74923;HTU21D;64715;44.760;37.678;2023-01-16T01:11:12;1.85;79.00
74923;HTU21D;64715;44.760;37.678;2023-01-16T01:12:15;1.86;78.87
74923;HTU21D;64715;44.760;37.678;2023-01-16T01:13:16;1.83;78.77
74923;HTU21D;64715;44.760;37.678;2023-01-16T01:14:17;1.80;78.72
74923;HTU21D;64715;44.760;37.678;2023-01-16T01:15:18;1.80;78.85
74923;HTU21D;64715;44.760;37.678;2023-01-16T01:16:19;1.80;78.82
74923;HTU21D;64715;44.760;37.678;2023-01-16T01:17:19;1.77;78.83
74923;HTU21D;64715;44.760;37.678;2023-01-16T01:18:20;1.77;78.69
74923;HTU21D;64715;44.760;37.678;2023-01-16T01:19:21;1.75;79.12
74923;HTU21D;64715;44.760;37.678;2023-01-16T01:20:22;1.75;78.74
74923;HTU21D;64715;44.760;37.678;2023-01-16T01:21:24;1.75;78.99
74923;HTU21D;64715;44.760;37.678;2023-01-16T01:22:25;1.75;79.07
74923;HTU21D;64715;44.760;37.678;2023-01-16T01:23:27;1.75;78.97
74923;HTU21D;64715;44.760;37.678;2023-01-16T01:24:29;1.75;78.66
74923;HTU21D;64715;44.760;37.678;2023-01-16T01:25:30;1.73;78.85
74923;HTU21D;64715;44.760;37.678;2023-01-16T01:26:31;1.77;79.37
74923;HTU21D;64715;44.760;37.678;2023-01-16T01:27:33;1.73;79.08
74923;HTU21D;64715;44.760;37.678;2023-01-16T01:28:34;1.76;79.11
74923;HTU21D;64715;44.760;37.678;2023-01-16T01:29:35;1.76;79.12
74923;HTU21D;64715;44.760;37.678;2023-01-16T01:30:37;1.80;79.24
74923;HTU21D;64715;44.760;37.678;2023-01-16T01:31:38;1.81;79.37
74923;HTU21D;64715;44.760;37.678;2023-01-16T01:32:39;1.83;79.33
74923;HTU21D;64715;44.760;37.678;2023-01-16T01:33:42;1.84;79.24
74923;HTU21D;64715;44.760;37.678;2023-01-16T01:34:43;1.87;79.15
74923;HTU21D;64715;44.760;37.678;2023-01-16T01:35:43;1.88;79.37
74923;HTU21D;64715;44.760;37.678;2023-01-16T01:36:45;1.90;79.24
74923;HTU21D;64715;44.760;37.678;2023-01-16T01:37:46;1.87;79.36
74923;HTU21D;64715;44.760;37.678;2023-01-16T01:38:47;1.90;79.32
74923;HTU21D;64715;44.760;37.678;2023-01-16T01:39:49;1.88;79.43
74923;HTU21D;64715;44.760;37.678;2023-01-16T01:40:51;1.91;79.52
74923;HTU21D;64715;44.760;37.678;2023-01-16T01:41:52;1.88;79.29
74923;HTU21D;64715;44.760;37.678;2023-01-16T01:43:14;1.90;79.32
74923;HTU21D;64715;44.760;37.678;2023-01-16T01:44:44;1.90;79.30
74923;HTU21D;64715;44.760;37.678;2023-01-16T01:45:54;1.88;79.11
74923;HTU21D;64715;44.760;37.678;2023-01-16T01:46:55;1.87;79.66
74923;HTU21D;64715;44.760;37.678;2023-01-16T01:49:21;1.86;79.31
74923;HTU21D;64715;44.760;37.678;2023-01-16T01:50:48;1.83;79.43
74923;HTU21D;64715;44.760;37.678;2023-01-16T01:51:51;1.85;79.33
74923;HTU21D;64715;44.760;37.678;2023-01-16T01:52:53;1.82;79.21
74923;HTU21D;64715;44.760;37.678;2023-01-16T01:54:09;1.83;79.43
74923;HTU21D;64715;44.760;37.678;2023-01-16T01:55:13;1.81;79.38
74923;HTU21D;64715;44.760;37.678;2023-01-16T01:56:26;1.81;79.24
74923;HTU21D;64715;44.760;37.678;2023-01-16T01:57:34;1.81;79.33
74923;HTU21D;64715;44.760;37.678;2023-01-16T01:58:37;1.81;79.58
74923;HTU21D;64715;44.760;37.678;2023-01-16T01:59:54;1.80;79.46
74923;HTU21D;64715;44.760;37.678;2023-01-16T02:00:57;1.77;79.59
74923;HTU21D;64715;44.760;37.678;2023-01-16T02:02:00;1.78;79.82
74923;HTU21D;64715;44.760;37.678;2023-01-16T02:03:04;1.80;79.67
74923;HTU21D;64715;44.760;37.678;2023-01-16T02:04:13;1.80;79.91
74923;HTU21D;64715;44.760;37.678;2023-01-16T02:05:21;1.80;80.07
74923;HTU21D;64715;44.760;37.678;2023-01-16T02:07:09;1.82;79.85
74923;HTU21D;64715;44.760;37.678;2023-01-16T02:07:52;1.82;80.09
74923;HTU21D;64715;44.760;37.678;2023-01-16T02:08:54;1.84;80.05
74923;HTU21D;64715;44.760;37.678;2023-01-16T02:10:03;1.86;80.14
74923;HTU21D;64715;44.760;37.678;2023-01-16T02:12:47;1.90;79.83
74923;HTU21D;64715;44.760;37.678;2023-01-16T02:13:48;1.91;80.14
74923;HTU21D;64715;44.760;37.678;2023-01-16T02:14:50;1.91;79.84
74923;HTU21D;64715;44.760;37.678;2023-01-16T02:15:51;1.91;80.16
74923;HTU21D;64715;44.760;37.678;2023-01-16T02:17:13;1.93;80.15
74923;HTU21D;64715;44.760;37.678;2023-01-16T02:18:38;1.94;80.20
74923;HTU21D;64715;44.760;37.678;2023-01-16T02:22:03;1.99;80.05
74923;HTU21D;64715;44.760;37.678;2023-01-16T02:29:08;2.03;79.95
74923;HTU21D;64715;44.760;37.678;2023-01-16T02:31:37;2.03;79.87
74923;HTU21D;64715;44.760;37.678;2023-01-16T02:38:14;2.08;79.84
74923;HTU21D;64715;44.760;37.678;2023-01-16T02:40:43;2.12;79.93
74923;HTU21D;64715;44.760;37.678;2023-01-16T02:44:40;2.17;79.82
74923;HTU21D;64715;44.760;37.678;2023-01-16T02:45:52;2.16;79.91
74923;HTU21D;64715;44.760;37.678;2023-01-16T02:48:25;2.14;79.65
74923;HTU21D;64715;44.760;37.678;2023-01-16T02:49:42;2.15;79.37
74923;HTU21D;64715;44.760;37.678;2023-01-16T02:52:18;2.13;79.49
74923;HTU21D;64715;44.760;37.678;2023-01-16T02:55:03;2.12;79.67
74923;HTU21D;64715;44.760;37.678;2023-01-16T02:56:09;2.13;79.75
74923;HTU21D;64715;44.760;37.678;2023-01-16T02:57:17;2.13;79.39
74923;HTU21D;64715;44.760;37.678;2023-01-16T02:58:19;2.12;79.38
74923;HTU21D;64715;44.760;37.678;2023-01-16T02:59:21;2.13;79.61
74923;HTU21D;64715;44.760;37.678;2023-01-16T03:00:23;2.15;79.40
74923;HTU21D;64715;44.760;37.678;2023-01-16T03:01:25;2.16;79.43
74923;HTU21D;64715;44.760;37.678;2023-01-16T03:02:26;2.15;79.69
74923;HTU21D;64715;44.760;37.678;2023-01-16T03:04:49;2.14;79.39
74923;HTU21D;64715;44.760;37.678;2023-01-16T03:05:52;2.11;79.23
74923;HTU21D;64715;44.760;37.678;2023-01-16T03:07:27;2.12;79.39
74923;HTU21D;64715;44.760;37.678;2023-01-16T03:11:20;2.06;79.44
74923;HTU21D;64715;44.760;37.678;2023-01-16T03:15:08;2.05;79.65
74923;HTU21D;64715;44.760;37.678;2023-01-16T03:18:26;2.12;79.62
74923;HTU21D;64715;44.760;37.678;2023-01-16T03:19:14;2.12;79.62
74923;HTU21D;64715;44.760;37.678;2023-01-16T03:20:36;2.19;79.86
74923;HTU21D;64715;44.760;37.678;2023-01-16T03:23:02;2.21;79.66
74923;HTU21D;64715;44.760;37.678;2023-01-16T03:24:18;2.22;79.68
74923;HTU21D;64715;44.760;37.678;2023-01-16T03:25:38;2.25;79.81
74923;HTU21D;64715;44.760;37.678;2023-01-16T03:26:45;2.28;79.77
74923;HTU21D;64715;44.760;37.678;2023-01-16T03:29:19;2.28;79.51
74923;HTU21D;64715;44.760;37.678;2023-01-16T03:31:54;2.25;79.53
74923;HTU21D;64715;44.760;37.678;2023-01-16T03:33:04;2.25;79.18
74923;HTU21D;64715;44.760;37.678;2023-01-16T03:34:50;2.25;79.13
74923;HTU21D;64715;44.760;37.678;2023-01-16T03:35:44;2.20;79.17
74923;HTU21D;64715;44.760;37.678;2023-01-16T03:37:03;2.20;79.10
74923;HTU21D;64715;44.760;37.678;2023-01-16T03:38:14;2.19;79.19
74923;HTU21D;64715;44.760;37.678;2023-01-16T03:39:22;2.17;78.99
74923;HTU21D;64715;44.760;37.678;2023-01-16T03:40:28;2.14;79.08
74923;HTU21D;64715;44.760;37.678;2023-01-16T03:41:31;2.14;78.99
74923;HTU21D;64715;44.760;37.678;2023-01-16T03:42:38;2.14;78.98
74923;HTU21D;64715;44.760;37.678;2023-01-16T03:43:44;2.17;79.04
74923;HTU21D;64715;44.760;37.678;2023-01-16T03:44:52;2.19;78.99
74923;HTU21D;64715;44.760;37.678;2023-01-16T03:47:02;2.24;79.22
74923;HTU21D;64715;44.760;37.678;2023-01-16T03:48:12;2.24;79.25
74923;HTU21D;64715;44.760;37.678;2023-01-16T03:49:18;2.27;79.20
74923;HTU21D;64715;44.760;37.678;2023-01-16T03:50:21;2.31;79.29
74923;HTU21D;64715;44.760;37.678;2023-01-16T03:51:26;2.36;79.14
74923;HTU21D;64715;44.760;37.678;2023-01-16T03:52:34;2.39;79.35
74923;HTU21D;64715;44.760;37.678;2023-01-16T03:53:42;2.41;79.27
74923;HTU21D;64715;44.760;37.678;2023-01-16T03:55:21;2.47;79.12
74923;HTU21D;64715;44.760;37.678;2023-01-16T03:56:35;2.52;79.12
74923;HTU21D;64715;44.760;37.678;2023-01-16T03:57:41;2.53;79.18
74923;HTU21D;64715;44.760;37.678;2023-01-16T03:58:47;2.59;79.13
74923;HTU21D;64715;44.760;37.678;2023-01-16T03:59:52;2.62;79.27
74923;HTU21D;64715;44.760;37.678;2023-01-16T04:03:04;2.72;79.04
74923;HTU21D;64715;44.760;37.678;2023-01-16T04:04:14;2.74;78.57
74923;HTU21D;64715;44.760;37.678;2023-01-16T04:06:53;2.74;78.96
74923;HTU21D;64715;44.760;37.678;2023-01-16T04:07:57;2.74;78.69
74923;HTU21D;64715;44.760;37.678;2023-01-16T04:09:04;2.76;78.39
74923;HTU21D;64715;44.760;37.678;2023-01-16T04:10:15;2.78;78.47
74923;HTU21D;64715;44.760;37.678;2023-01-16T04:11:19;2.81;78.45
74923;HTU21D;64715;44.760;37.678;2023-01-16T04:12:23;2.78;78.54
74923;HTU21D;64715;44.760;37.678;2023-01-16T04:13:29;2.80;78.22
74923;HTU21D;64715;44.760;37.678;2023-01-16T04:14:33;2.82;78.66
74923;HTU21D;64715;44.760;37.678;2023-01-16T04:15:37;2.81;78.43
74923;HTU21D;64715;44.760;37.678;2023-01-16T04:16:40;2.85;78.23
74923;HTU21D;64715;44.760;37.678;2023-01-16T04:17:43;2.86;78.23
74923;HTU21D;64715;44.760;37.678;2023-01-16T04:18:46;2.89;77.92
74923;HTU21D;64715;44.760;37.678;2023-01-16T04:19:47;2.94;78.16
74923;HTU21D;64715;44.760;37.678;2023-01-16T04:20:49;2.95;78.10
74923;HTU21D;64715;44.760;37.678;2023-01-16T04:21:50;2.98;78.29
74923;HTU21D;64715;44.760;37.678;2023-01-16T04:22:51;3.00;77.95
74923;HTU21D;64715;44.760;37.678;2023-01-16T04:23:53;3.04;77.95
74923;HTU21D;64715;44.760;37.678;2023-01-16T04:24:59;3.08;78.08
74923;HTU21D;64715;44.760;37.678;2023-01-16T04:26:00;3.14;78.03
74923;HTU21D;64715;44.760;37.678;2023-01-16T04:27:02;3.18;77.92
74923;HTU21D;64715;44.760;37.678;2023-01-16T04:28:03;3.19;77.96
74923;HTU21D;64715;44.760;37.678;2023-01-16T04:29:04;3.24;77.82
74923;HTU21D;64715;44.760;37.678;2023-01-16T04:30:06;3.27;77.84
74923;HTU21D;64715;44.760;37.678;2023-01-16T04:31:07;3.33;77.63
74923;HTU21D;64715;44.760;37.678;2023-01-16T04:32:08;3.36;77.35
74923;HTU21D;64715;44.760;37.678;2023-01-16T04:33:09;3.38;77.14
74923;HTU21D;64715;44.760;37.678;2023-01-16T04:34:10;3.42;77.29
74923;HTU21D;64715;44.760;37.678;2023-01-16T04:35:11;3.45;77.14
74923;HTU21D;64715;44.760;37.678;2023-01-16T04:36:12;3.49;76.86
74923;HTU21D;64715;44.760;37.678;2023-01-16T04:37:15;3.55;77.18
74923;HTU21D;64715;44.760;37.678;2023-01-16T04:38:16;3.58;76.67
74923;HTU21D;64715;44.760;37.678;2023-01-16T04:39:17;3.60;76.76
74923;HTU21D;64715;44.760;37.678;2023-01-16T04:40:18;3.65;76.60
74923;HTU21D;64715;44.760;37.678;2023-01-16T04:41:19;3.68;76.63
74923;HTU21D;64715;44.760;37.678;2023-01-16T04:42:40;3.70;76.45
74923;HTU21D;64715;44.760;37.678;2023-01-16T04:43:42;3.72;76.77
74923;HTU21D;64715;44.760;37.678;2023-01-16T04:44:43;3.74;76.27
74923;HTU21D;64715;44.760;37.678;2023-01-16T04:45:46;3.75;76.64
74923;HTU21D;64715;44.760;37.678;2023-01-16T04:46:47;3.77;76.36
74923;HTU21D;64715;44.760;37.678;2023-01-16T04:47:49;3.78;76.10
74923;HTU21D;64715;44.760;37.678;2023-01-16T04:48:50;3.82;76.31
74923;HTU21D;64715;44.760;37.678;2023-01-16T04:49:51;3.85;76.09
74923;HTU21D;64715;44.760;37.678;2023-01-16T04:50:52;3.86;76.18
74923;HTU21D;64715;44.760;37.678;2023-01-16T04:51:53;3.87;75.67
74923;HTU21D;64715;44.760;37.678;2023-01-16T04:52:54;3.89;75.70
74923;HTU21D;64715;44.760;37.678;2023-01-16T04:53:55;3.90;75.57
74923;HTU21D;64715;44.760;37.678;2023-01-16T04:54:57;3.94;75.44
74923;HTU21D;64715;44.760;37.678;2023-01-16T04:55:58;3.93;75.54
74923;HTU21D;64715;44.760;37.678;2023-01-16T04:56:59;3.92;75.29
74923;HTU21D;64715;44.760;37.678;2023-01-16T04:58:01;3.94;75.29
74923;HTU21D;64715;44.760;37.678;2023-01-16T04:59:02;3.94;75.35
74923;HTU21D;64715;44.760;37.678;2023-01-16T05:00:05;3.95;75.24
74923;HTU21D;64715;44.760;37.678;2023-01-16T05:01:07;3.95;75.27
74923;HTU21D;64715;44.760;37.678;2023-01-16T05:02:09;3.94;75.02
74923;HTU21D;64715;44.760;37.678;2023-01-16T05:03:09;3.97;75.16
74923;HTU21D;64715;44.760;37.678;2023-01-16T05:04:13;3.95;75.15
74923;HTU21D;64715;44.760;37.678;2023-01-16T05:05:14;3.95;75.05
74923;HTU21D;64715;44.760;37.678;2023-01-16T05:06:16;3.95;75.00
74923;HTU21D;64715;44.760;37.678;2023-01-16T05:07:17;3.93;74.91
74923;HTU21D;64715;44.760;37.678;2023-01-16T05:08:18;3.93;75.16
74923;HTU21D;64715;44.760;37.678;2023-01-16T05:09:19;3.91;75.12
74923;HTU21D;64715;44.760;37.678;2023-01-16T05:10:20;3.91;74.85
74923;HTU21D;64715;44.760;37.678;2023-01-16T05:11:21;3.91;74.61
74923;HTU21D;64715;44.760;37.678;2023-01-16T05:12:22;3.88;74.59
74923;HTU21D;64715;44.760;37.678;2023-01-16T05:13:23;3.89;74.70
74923;HTU21D;64715;44.760;37.678;2023-01-16T05:14:24;3.89;74.80
74923;HTU21D;64715;44.760;37.678;2023-01-16T05:15:25;3.88;74.64
74923;HTU21D;64715;44.760;37.678;2023-01-16T05:16:26;3.88;74.78
74923;HTU21D;64715;44.760;37.678;2023-01-16T05:17:27;3.87;74.57
74923;HTU21D;64715;44.760;37.678;2023-01-16T05:18:28;3.89;74.57
74923;HTU21D;64715;44.760;37.678;2023-01-16T05:19:29;3.89;74.64
74923;HTU21D;64715;44.760;37.678;2023-01-16T05:20:31;3.90;74.54
74923;HTU21D;64715;44.760;37.678;2023-01-16T05:21:32;3.92;74.48
74923;HTU21D;64715;44.760;37.678;2023-01-16T05:22:33;3.93;74.47
74923;HTU21D;64715;44.760;37.678;2023-01-16T05:23:34;3.94;74.60
74923;HTU21D;64715;44.760;37.678;2023-01-16T05:24:36;3.98;74.27
74923;HTU21D;64715;44.760;37.678;2023-01-16T05:25:38;3.99;74.38
74923;HTU21D;64715;44.760;37.678;2023-01-16T05:26:39;4.01;74.42
74923;HTU21D;64715;44.760;37.678;2023-01-16T05:27:40;4.00;74.41
74923;HTU21D;64715;44.760;37.678;2023-01-16T05:28:41;4.03;74.20
74923;HTU21D;64715;44.760;37.678;2023-01-16T05:29:43;4.05;74.57
74923;HTU21D;64715;44.760;37.678;2023-01-16T05:30:44;4.07;74.41
74923;HTU21D;64715;44.760;37.678;2023-01-16T05:31:45;4.10;74.38
74923;HTU21D;64715;44.760;37.678;2023-01-16T05:32:46;4.16;74.34
74923;HTU21D;64715;44.760;37.678;2023-01-16T05:33:47;4.19;74.38
74923;HTU21D;64715;44.760;37.678;2023-01-16T05:34:48;4.22;74.30
74923;HTU21D;64715;44.760;37.678;2023-01-16T05:35:49;4.28;74.55
74923;HTU21D;64715;44.760;37.678;2023-01-16T05:36:51;4.35;74.25
74923;HTU21D;64715;44.760;37.678;2023-01-16T05:37:52;4.39;74.15
74923;HTU21D;64715;44.760;37.678;2023-01-16T05:38:53;4.47;74.12
74923;HTU21D;64715;44.760;37.678;2023-01-16T05:39:55;4.51;74.24
74923;HTU21D;64715;44.760;37.678;2023-01-16T05:40:58;4.57;74.12
74923;HTU21D;64715;44.760;37.678;2023-01-16T05:41:59;4.64;74.06
74923;HTU21D;64715;44.760;37.678;2023-01-16T05:43:00;4.69;73.90
74923;HTU21D;64715;44.760;37.678;2023-01-16T05:44:01;4.80;73.82
74923;HTU21D;64715;44.760;37.678;2023-01-16T05:45:03;4.88;73.80
74923;HTU21D;64715;44.760;37.678;2023-01-16T05:46:04;4.94;73.59
74923;HTU21D;64715;44.760;37.678;2023-01-16T05:47:05;5.03;73.49
74923;HTU21D;64715;44.760;37.678;2023-01-16T05:48:06;5.10;73.22
74923;HTU21D;64715;44.760;37.678;2023-01-16T05:49:07;5.18;72.85
74923;HTU21D;64715;44.760;37.678;2023-01-16T05:50:08;5.26;73.04
74923;HTU21D;64715;44.760;37.678;2023-01-16T05:51:09;5.36;73.12
74923;HTU21D;64715;44.760;37.678;2023-01-16T05:52:12;5.47;72.76
74923;HTU21D;64715;44.760;37.678;2023-01-16T05:53:13;5.60;72.51
74923;HTU21D;64715;44.760;37.678;2023-01-16T05:54:14;5.72;72.67
74923;HTU21D;64715;44.760;37.678;2023-01-16T05:55:16;5.89;72.16
74923;HTU21D;64715;44.760;37.678;2023-01-16T05:56:20;6.02;72.01
74923;HTU21D;64715;44.760;37.678;2023-01-16T05:57:23;6.16;71.74
74923;HTU21D;64715;44.760;37.678;2023-01-16T05:58:24;6.34;71.53
74923;HTU21D;64715;44.760;37.678;2023-01-16T05:59:25;6.51;71.35
74923;HTU21D;64715;44.760;37.678;2023-01-16T06:00:26;6.67;71.06
74923;HTU21D;64715;44.760;37.678;2023-01-16T06:01:27;6.85;70.58
74923;HTU21D;64715;44.760;37.678;2023-01-16T06:02:28;7.05;70.41
74923;HTU21D;64715;44.760;37.678;2023-01-16T06:03:29;7.27;70.21
74923;HTU21D;64715;44.760;37.678;2023-01-16T06:04:30;7.47;69.50
74923;HTU21D;64715;44.760;37.678;2023-01-16T06:05:31;7.69;69.04
74923;HTU21D;64715;44.760;37.678;2023-01-16T06:06:32;7.90;68.61
74923;HTU21D;64715;44.760;37.678;2023-01-16T06:07:33;8.11;68.20
74923;HTU21D;64715;44.760;37.678;2023-01-16T06:08:34;8.33;68.14
74923;HTU21D;64715;44.760;37.678;2023-01-16T06:09:36;8.55;67.10
74923;HTU21D;64715;44.760;37.678;2023-01-16T06:10:37;8.76;66.61
74923;HTU21D;64715;44.760;37.678;2023-01-16T06:11:38;8.93;66.13
74923;HTU21D;64715;44.760;37.678;2023-01-16T06:12:39;9.09;65.62
74923;HTU21D;64715;44.760;37.678;2023-01-16T06:13:40;9.27;65.14
74923;HTU21D;64715;44.760;37.678;2023-01-16T06:14:41;9.48;64.62
74923;HTU21D;64715;44.760;37.678;2023-01-16T06:15:44;9.67;63.90
74923;HTU21D;64715;44.760;37.678;2023-01-16T06:16:45;9.84;63.34
74923;HTU21D;64715;44.760;37.678;2023-01-16T06:17:46;10.00;62.73
74923;HTU21D;64715;44.760;37.678;2023-01-16T06:18:47;10.14;61.94
74923;HTU21D;64715;44.760;37.678;2023-01-16T06:19:48;10.23;61.54
74923;HTU21D;64715;44.760;37.678;2023-01-16T06:20:49;10.31;61.06
74923;HTU21D;64715;44.760;37.678;2023-01-16T06:21:50;10.43;60.62
74923;HTU21D;64715;44.760;37.678;2023-01-16T06:22:51;10.56;60.44
74923;HTU21D;64715;44.760;37.678;2023-01-16T06:23:52;10.71;59.83
74923;HTU21D;64715;44.760;37.678;2023-01-16T06:24:53;10.81;59.56
74923;HTU21D;64715;44.760;37.678;2023-01-16T06:25:54;10.90;58.86
74923;HTU21D;64715;44.760;37.678;2023-01-16T06:26:55;10.96;58.72
74923;HTU21D;64715;44.760;37.678;2023-01-16T06:27:56;11.01;58.30
74923;HTU21D;64715;44.760;37.678;2023-01-16T06:28:57;11.05;57.92
74923;HTU21D;64715;44.760;37.678;2023-01-16T06:29:58;11.13;57.97
74923;HTU21D;64715;44.760;37.678;2023-01-16T06:30:59;11.18;57.39
74923;HTU21D;64715;44.760;37.678;2023-01-16T06:32:00;11.25;57.61
74923;HTU21D;64715;44.760;37.678;2023-01-16T06:33:01;11.33;57.07
74923;HTU21D;64715;44.760;37.678;2023-01-16T06:34:03;11.34;56.36
74923;HTU21D;64715;44.760;37.678;2023-01-16T06:35:04;11.33;56.29
74923;HTU21D;64715;44.760;37.678;2023-01-16T06:36:05;11.30;55.80
74923;HTU21D;64715;44.760;37.678;2023-01-16T06:37:06;11.28;55.87
74923;HTU21D;64715;44.760;37.678;2023-01-16T06:38:07;11.26;55.29
74923;HTU21D;64715;44.760;37.678;2023-01-16T06:39:10;11.24;54.98
74923;HTU21D;64715;44.760;37.678;2023-01-16T06:40:11;11.22;54.97
74923;HTU21D;64715;44.760;37.678;2023-01-16T06:41:12;11.19;54.72
74923;HTU21D;64715;44.760;37.678;2023-01-16T06:42:13;11.18;54.77
74923;HTU21D;64715;44.760;37.678;2023-01-16T06:43:14;11.15;54.71
74923;HTU21D;64715;44.760;37.678;2023-01-16T06:44:18;11.13;54.55
74923;HTU21D;64715;44.760;37.678;2023-01-16T06:45:19;11.13;54.60
74923;HTU21D;64715;44.760;37.678;2023-01-16T06:46:22;11.13;54.27
74923;HTU21D;64715;44.760;37.678;2023-01-16T06:47:24;11.17;54.33
74923;HTU21D;64715;44.760;37.678;2023-01-16T06:48:25;11.24;54.05
74923;HTU21D;64715;44.760;37.678;2023-01-16T06:49:26;11.28;54.11
74923;HTU21D;64715;44.760;37.678;2023-01-16T06:50:27;11.33;53.70
74923;HTU21D;64715;44.760;37.678;2023-01-16T06:51:28;11.33;53.44
74923;HTU21D;64715;44.760;37.678;2023-01-16T06:52:29;11.38;53.58
74923;HTU21D;64715;44.760;37.678;2023-01-16T06:53:30;11.43;52.98
74923;HTU21D;64715;44.760;37.678;2023-01-16T06:54:32;11.47;52.75
74923;HTU21D;64715;44.760;37.678;2023-01-16T06:55:33;11.52;52.73
74923;HTU21D;64715;44.760;37.678;2023-01-16T06:56:34;11.55;52.45
74923;HTU21D;64715;44.760;37.678;2023-01-16T06:57:37;11.59;51.86
74923;HTU21D;64715;44.760;37.678;2023-01-16T06:58:38;11.60;51.72
74923;HTU21D;64715;44.760;37.678;2023-01-16T06:59:39;11.58;51.72
74923;HTU21D;64715;44.760;37.678;2023-01-16T07:00:41;11.61;51.74
74923;HTU21D;64715;44.760;37.678;2023-01-16T07:01:42;11.60;51.98
74923;HTU21D;64715;44.760;37.678;2023-01-16T07:02:43;11.57;51.88
74923;HTU21D;64715;44.760;37.678;2023-01-16T07:03:44;11.58;51.72
74923;HTU21D;64715;44.760;37.678;2023-01-16T07:04:45;11.54;51.97
74923;HTU21D;64715;44.760;37.678;2023-01-16T07:05:46;11.53;51.98
74923;HTU21D;64715;44.760;37.678;2023-01-16T07:06:47;11.48;52.46
74923;HTU21D;64715;44.760;37.678;2023-01-16T07:07:50;11.47;52.30
74923;HTU21D;64715;44.760;37.678;2023-01-16T07:08:51;11.45;52.39
74923;HTU21D;64715;44.760;37.678;2023-01-16T07:09:52;11.37;52.45
74923;HTU21D;64715;44.760;37.678;2023-01-16T07:10:53;11.30;52.15
74923;HTU21D;64715;44.760;37.678;2023-01-16T07:11:55;11.23;52.40
74923;HTU21D;64715;44.760;37.678;2023-01-16T07:12:57;11.16;52.66
74923;HTU21D;64715;44.760;37.678;2023-01-16T07:13:58;11.11;52.94
74923;HTU21D;64715;44.760;37.678;2023-01-16T07:15:17;11.04;52.75
74923;HTU21D;64715;44.760;37.678;2023-01-16T07:16:37;10.95;52.77
74923;HTU21D;64715;44.760;37.678;2023-01-16T07:17:56;10.88;52.88